createdAt,value
2022-07-29T00:00:05.218Z,1.50
2022-07-29T00:02:33.474Z,1.90
2022-07-29T00:05:01.869Z,1.80
2022-07-29T00:07:30.015Z,1.73
2022-07-29T00:09:58.111Z,1.95
2022-07-29T00:12:27.810Z,1.67
2022-07-29T00:14:58.566Z,1.50
2022-07-29T00:17:27.178Z,1.90
2022-07-29T00:19:55.253Z,2.00
2022-07-29T00:22:23.275Z,1.95
2022-07-29T00:24:51.421Z,1.83
2022-07-29T00:27:19.966Z,2.17
2022-07-29T00:29:49.462Z,2.03
2022-07-29T00:32:17.680Z,1.55
2022-07-29T00:35:03.255Z,2.00
2022-07-29T00:37:31.304Z,1.63
2022-07-29T00:39:59.340Z,2.03
2022-07-29T00:42:29.605Z,1.58
2022-07-29T00:44:58.997Z,1.80
2022-07-29T00:47:27.140Z,2.00
2022-07-29T00:49:55.192Z,1.98
2022-07-29T21:03:36.215Z,2.30
2022-07-29T21:06:04.759Z,2.58
2022-07-29T21:08:32.831Z,2.17
2022-07-29T21:11:00.997Z,2.58
2022-07-29T21:13:29.357Z,2.80
2022-07-29T21:16:02.003Z,2.55
2022-07-29T21:18:37.175Z,2.40
2022-07-29T21:21:23.140Z,2.70
2022-07-29T21:23:54.353Z,2.58
2022-07-29T21:26:22.489Z,2.95
2022-07-29T21:29:17.782Z,2.65
2022-07-29T21:31:48.561Z,2.30
2022-07-29T21:34:38.196Z,2.30
2022-07-29T21:37:42.011Z,2.63
2022-07-29T21:40:18.022Z,2.60
2022-07-29T21:42:46.329Z,2.35
2022-07-29T21:45:46.804Z,2.20
2022-07-29T21:48:15.110Z,2.20
2022-07-29T21:50:49.563Z,2.28
2022-07-29T21:53:34.806Z,2.70
2022-07-29T21:56:32.046Z,2.53
2022-07-29T21:59:04.657Z,1.95
2022-07-29T22:04:55.332Z,2.35
2022-07-29T22:07:23.589Z,2.63
2022-07-29T22:10:03.484Z,2.60
2022-07-29T22:12:46.137Z,2.75
2022-07-29T22:18:40.908Z,3.05
2022-07-29T22:21:23.755Z,2.70
2022-07-29T22:24:04.100Z,2.20
2022-07-29T22:26:39.840Z,2.40
2022-07-29T22:29:29.430Z,2.20
2022-07-29T22:32:10.892Z,3.08
2022-07-29T22:34:46.944Z,2.20
2022-07-29T22:37:30.351Z,2.40
2022-07-29T22:40:09.426Z,2.60
2022-07-29T22:42:40.885Z,3.15
2022-07-29T22:45:28.382Z,2.85
2022-07-29T22:48:24.673Z,3.03
2022-07-29T22:51:04.515Z,2.78
2022-07-29T22:53:54.199Z,2.80
2022-07-29T22:56:44.202Z,2.63
2022-07-29T22:59:35.372Z,2.50
2022-07-29T23:02:13.688Z,2.60
2022-07-29T23:08:21.902Z,2.55
2022-07-29T23:11:23.035Z,2.83
2022-07-29T23:13:53.989Z,3.00
2022-07-29T23:16:26.623Z,2.55
2022-07-29T23:18:58.283Z,2.20
2022-07-29T23:21:28.906Z,2.90
2022-07-29T23:23:56.964Z,3.15
2022-07-29T23:26:25.020Z,2.50
2022-07-29T23:28:52.974Z,3.00
2022-07-29T23:31:21.022Z,3.28
2022-07-29T23:33:50.473Z,3.45
2022-07-29T23:36:20.074Z,3.35
2022-07-29T23:38:48.284Z,2.92
2022-07-29T23:41:16.491Z,2.42
2022-07-29T23:43:44.539Z,3.17
2022-07-29T23:46:12.566Z,2.90
2022-07-29T23:48:43.362Z,2.65
2022-07-29T23:51:12.664Z,2.80
2022-07-29T23:53:53.008Z,2.80
2022-07-29T23:56:22.631Z,2.83
2022-07-29T23:58:50.584Z,2.15
